sensor_id;sensor_type;location;lat;lon;timestamp;P1;durP1;ratioP1;P2;durP2;ratioP2
73264;SDS011;61493;51.008;14.088;2023-09-19T00:00:20;11.38;;;5.75;;
73264;SDS011;61493;51.008;14.088;2023-09-19T00:03:06;9.30;;;5.70;;
73264;SDS011;61493;51.008;14.088;2023-09-19T00:05:34;11.60;;;6.75;;
73264;SDS011;61493;51.008;14.088;2023-09-19T00:08:00;9.27;;;5.70;;
73264;SDS011;61493;51.008;14.088;2023-09-19T00:10:26;10.15;;;5.40;;
73264;SDS011;61493;51.008;14.088;2023-09-19T00:12:51;9.70;;;5.00;;
73264;SDS011;61493;51.008;14.088;2023-09-19T00:15:23;9.40;;;4.90;;
73264;SDS011;61493;51.008;14.088;2023-09-19T00:17:49;11.55;;;5.90;;
73264;SDS011;61493;51.008;14.088;2023-09-19T00:20:17;8.95;;;5.53;;
73264;SDS011;61493;51.008;14.088;2023-09-19T00:22:42;11.13;;;4.93;;
73264;SDS011;61493;51.008;14.088;2023-09-19T00:25:08;9.45;;;4.82;;
73264;SDS011;61493;51.008;14.088;2023-09-19T00:27:34;9.43;;;4.15;;
73264;SDS011;61493;51.008;14.088;2023-09-19T00:29:59;8.77;;;4.97;;
73264;SDS011;61493;51.008;14.088;2023-09-19T00:32:25;9.55;;;4.50;;
73264;SDS011;61493;51.008;14.088;2023-09-19T00:34:56;6.75;;;3.95;;
73264;SDS011;61493;51.008;14.088;2023-09-19T00:37:22;6.80;;;4.07;;
73264;SDS011;61493;51.008;14.088;2023-09-19T00:39:47;7.00;;;3.65;;
73264;SDS011;61493;51.008;14.088;2023-09-19T00:42:17;6.50;;;4.27;;
73264;SDS011;61493;51.008;14.088;2023-09-19T00:44:44;5.20;;;3.33;;
73264;SDS011;61493;51.008;14.088;2023-09-19T00:47:09;7.57;;;3.80;;
73264;SDS011;61493;51.008;14.088;2023-09-19T00:49:40;8.48;;;3.67;;
73264;SDS011;61493;51.008;14.088;2023-09-19T00:52:05;6.70;;;3.97;;
73264;SDS011;61493;51.008;14.088;2023-09-19T00:54:31;6.47;;;3.92;;
73264;SDS011;61493;51.008;14.088;2023-09-19T00:56:58;9.10;;;4.00;;
73264;SDS011;61493;51.008;14.088;2023-09-19T00:59:23;7.72;;;5.03;;
73264;SDS011;61493;51.008;14.088;2023-09-19T01:01:49;6.57;;;3.70;;
73264;SDS011;61493;51.008;14.088;2023-09-19T01:04:18;10.40;;;4.50;;
73264;SDS011;61493;51.008;14.088;2023-09-19T01:06:43;8.05;;;4.35;;
73264;SDS011;61493;51.008;14.088;2023-09-19T01:09:10;7.97;;;4.57;;
73264;SDS011;61493;51.008;14.088;2023-09-19T01:11:37;7.53;;;4.45;;
73264;SDS011;61493;51.008;14.088;2023-09-19T01:14:13;8.93;;;4.88;;
73264;SDS011;61493;51.008;14.088;2023-09-19T01:16:43;9.32;;;4.68;;
73264;SDS011;61493;51.008;14.088;2023-09-19T01:19:24;8.20;;;4.40;;
73264;SDS011;61493;51.008;14.088;2023-09-19T01:29:38;9.57;;;4.82;;
73264;SDS011;61493;51.008;14.088;2023-09-19T01:32:04;7.35;;;4.85;;
73264;SDS011;61493;51.008;14.088;2023-09-19T01:34:46;11.15;;;6.30;;
73264;SDS011;61493;51.008;14.088;2023-09-19T01:37:12;9.93;;;5.07;;
73264;SDS011;61493;51.008;14.088;2023-09-19T01:39:37;8.38;;;4.90;;
73264;SDS011;61493;51.008;14.088;2023-09-19T01:42:14;8.35;;;5.43;;
73264;SDS011;61493;51.008;14.088;2023-09-19T01:44:50;9.52;;;5.40;;
73264;SDS011;61493;51.008;14.088;2023-09-19T01:47:20;9.20;;;4.72;;
73264;SDS011;61493;51.008;14.088;2023-09-19T01:49:55;10.20;;;5.22;;
73264;SDS011;61493;51.008;14.088;2023-09-19T01:52:22;7.43;;;5.15;;
73264;SDS011;61493;51.008;14.088;2023-09-19T01:54:52;7.20;;;4.63;;
73264;SDS011;61493;51.008;14.088;2023-09-19T01:57:22;10.45;;;5.88;;
73264;SDS011;61493;51.008;14.088;2023-09-19T02:00:00;9.60;;;5.70;;
73264;SDS011;61493;51.008;14.088;2023-09-19T02:02:31;8.30;;;5.75;;
73264;SDS011;61493;51.008;14.088;2023-09-19T02:04:57;8.68;;;5.88;;
73264;SDS011;61493;51.008;14.088;2023-09-19T02:07:22;10.43;;;6.50;;
73264;SDS011;61493;51.008;14.088;2023-09-19T02:09:47;10.93;;;5.78;;
73264;SDS011;61493;51.008;14.088;2023-09-19T02:12:13;10.38;;;6.18;;
73264;SDS011;61493;51.008;14.088;2023-09-19T02:14:40;8.65;;;6.10;;
73264;SDS011;61493;51.008;14.088;2023-09-19T02:17:05;9.27;;;5.63;;
73264;SDS011;61493;51.008;14.088;2023-09-19T02:19:36;9.07;;;5.80;;
73264;SDS011;61493;51.008;14.088;2023-09-19T02:22:03;9.55;;;5.55;;
73264;SDS011;61493;51.008;14.088;2023-09-19T02:24:32;10.73;;;5.95;;
73264;SDS011;61493;51.008;14.088;2023-09-19T02:26:57;11.48;;;5.57;;
73264;SDS011;61493;51.008;14.088;2023-09-19T02:29:24;14.85;;;6.25;;
73264;SDS011;61493;51.008;14.088;2023-09-19T02:31:49;10.52;;;5.47;;
73264;SDS011;61493;51.008;14.088;2023-09-19T02:34:15;9.75;;;5.22;;
73264;SDS011;61493;51.008;14.088;2023-09-19T02:36:41;11.77;;;5.93;;
73264;SDS011;61493;51.008;14.088;2023-09-19T02:39:09;7.60;;;5.30;;
73264;SDS011;61493;51.008;14.088;2023-09-19T02:41:36;10.50;;;5.68;;
73264;SDS011;61493;51.008;14.088;2023-09-19T02:44:01;8.57;;;5.47;;
73264;SDS011;61493;51.008;14.088;2023-09-19T02:46:26;10.07;;;5.78;;
73264;SDS011;61493;51.008;14.088;2023-09-19T02:48:52;10.00;;;6.00;;
73264;SDS011;61493;51.008;14.088;2023-09-19T02:51:17;10.85;;;5.82;;
73264;SDS011;61493;51.008;14.088;2023-09-19T02:53:42;11.57;;;6.40;;
73264;SDS011;61493;51.008;14.088;2023-09-19T02:56:07;11.48;;;6.15;;
73264;SDS011;61493;51.008;14.088;2023-09-19T02:58:34;9.02;;;5.75;;
73264;SDS011;61493;51.008;14.088;2023-09-19T03:01:07;11.10;;;5.95;;
73264;SDS011;61493;51.008;14.088;2023-09-19T03:03:33;9.23;;;5.45;;
73264;SDS011;61493;51.008;14.088;2023-09-19T03:05:58;9.68;;;5.78;;
73264;SDS011;61493;51.008;14.088;2023-09-19T03:08:23;11.52;;;5.75;;
73264;SDS011;61493;51.008;14.088;2023-09-19T03:10:50;10.00;;;6.22;;
73264;SDS011;61493;51.008;14.088;2023-09-19T03:13:15;10.73;;;6.28;;
73264;SDS011;61493;51.008;14.088;2023-09-19T03:15:41;12.93;;;7.18;;
73264;SDS011;61493;51.008;14.088;2023-09-19T03:18:08;11.02;;;6.57;;
73264;SDS011;61493;51.008;14.088;2023-09-19T03:20:33;9.80;;;5.90;;
73264;SDS011;61493;51.008;14.088;2023-09-19T03:22:58;12.30;;;6.60;;
73264;SDS011;61493;51.008;14.088;2023-09-19T03:25:25;12.02;;;6.35;;
73264;SDS011;61493;51.008;14.088;2023-09-19T03:27:50;10.15;;;6.25;;
73264;SDS011;61493;51.008;14.088;2023-09-19T03:30:16;11.18;;;7.00;;
73264;SDS011;61493;51.008;14.088;2023-09-19T03:32:45;10.23;;;5.70;;
73264;SDS011;61493;51.008;14.088;2023-09-19T03:35:11;9.70;;;5.95;;
73264;SDS011;61493;51.008;14.088;2023-09-19T03:37:38;9.20;;;5.57;;
73264;SDS011;61493;51.008;14.088;2023-09-19T03:40:04;10.93;;;6.05;;
73264;SDS011;61493;51.008;14.088;2023-09-19T03:42:30;9.98;;;5.82;;
73264;SDS011;61493;51.008;14.088;2023-09-19T03:44:55;9.13;;;4.88;;
73264;SDS011;61493;51.008;14.088;2023-09-19T03:47:21;11.07;;;6.25;;
73264;SDS011;61493;51.008;14.088;2023-09-19T03:49:46;11.15;;;6.30;;
73264;SDS011;61493;51.008;14.088;2023-09-19T03:52:11;7.53;;;4.80;;
73264;SDS011;61493;51.008;14.088;2023-09-19T03:54:37;9.37;;;5.20;;
73264;SDS011;61493;51.008;14.088;2023-09-19T03:57:02;12.63;;;4.93;;
73264;SDS011;61493;51.008;14.088;2023-09-19T03:59:28;8.00;;;5.53;;
73264;SDS011;61493;51.008;14.088;2023-09-19T04:01:54;6.00;;;4.15;;
73264;SDS011;61493;51.008;14.088;2023-09-19T04:04:21;4.03;;;2.50;;
73264;SDS011;61493;51.008;14.088;2023-09-19T04:06:48;4.90;;;1.88;;
73264;SDS011;61493;51.008;14.088;2023-09-19T04:09:14;3.73;;;1.87;;
73264;SDS011;61493;51.008;14.088;2023-09-19T04:11:39;2.80;;;1.90;;
73264;SDS011;61493;51.008;14.088;2023-09-19T04:14:04;4.15;;;2.00;;
73264;SDS011;61493;51.008;14.088;2023-09-19T04:16:29;4.55;;;1.77;;
73264;SDS011;61493;51.008;14.088;2023-09-19T04:18:54;4.43;;;2.28;;
73264;SDS011;61493;51.008;14.088;2023-09-19T04:21:20;3.40;;;2.23;;
73264;SDS011;61493;51.008;14.088;2023-09-19T04:23:45;5.10;;;1.90;;
73264;SDS011;61493;51.008;14.088;2023-09-19T04:26:10;4.33;;;1.50;;
73264;SDS011;61493;51.008;14.088;2023-09-19T04:28:36;4.70;;;2.13;;
73264;SDS011;61493;51.008;14.088;2023-09-19T04:31:03;4.88;;;1.83;;
73264;SDS011;61493;51.008;14.088;2023-09-19T04:33:28;3.33;;;1.70;;
73264;SDS011;61493;51.008;14.088;2023-09-19T04:35:53;3.17;;;2.00;;
73264;SDS011;61493;51.008;14.088;2023-09-19T04:38:19;2.83;;;1.55;;
73264;SDS011;61493;51.008;14.088;2023-09-19T04:40:44;5.85;;;2.00;;
73264;SDS011;61493;51.008;14.088;2023-09-19T04:43:10;4.35;;;1.48;;
73264;SDS011;61493;51.008;14.088;2023-09-19T04:45:35;5.00;;;1.93;;
73264;SDS011;61493;51.008;14.088;2023-09-19T04:48:00;4.63;;;1.55;;
73264;SDS011;61493;51.008;14.088;2023-09-19T04:50:25;3.07;;;2.23;;
73264;SDS011;61493;51.008;14.088;2023-09-19T04:52:51;3.38;;;1.65;;
73264;SDS011;61493;51.008;14.088;2023-09-19T04:55:17;5.38;;;1.77;;
73264;SDS011;61493;51.008;14.088;2023-09-19T04:57:47;4.22;;;2.05;;
73264;SDS011;61493;51.008;14.088;2023-09-19T05:00:13;4.28;;;1.65;;
73264;SDS011;61493;51.008;14.088;2023-09-19T05:02:40;4.13;;;1.90;;
73264;SDS011;61493;51.008;14.088;2023-09-19T05:05:06;2.58;;;1.65;;
73264;SDS011;61493;51.008;14.088;2023-09-19T05:07:32;4.30;;;1.90;;
73264;SDS011;61493;51.008;14.088;2023-09-19T05:09:57;5.40;;;2.00;;
73264;SDS011;61493;51.008;14.088;2023-09-19T05:12:22;2.83;;;1.60;;
73264;SDS011;61493;51.008;14.088;2023-09-19T05:14:47;4.05;;;2.05;;
73264;SDS011;61493;51.008;14.088;2023-09-19T05:17:13;4.93;;;1.83;;
73264;SDS011;61493;51.008;14.088;2023-09-19T05:19:38;3.47;;;1.80;;
73264;SDS011;61493;51.008;14.088;2023-09-19T05:22:04;2.05;;;1.20;;
73264;SDS011;61493;51.008;14.088;2023-09-19T05:24:29;3.40;;;2.05;;
73264;SDS011;61493;51.008;14.088;2023-09-19T05:26:55;2.78;;;1.90;;
73264;SDS011;61493;51.008;14.088;2023-09-19T05:29:20;3.28;;;1.75;;
73264;SDS011;61493;51.008;14.088;2023-09-19T05:31:45;4.03;;;2.08;;
73264;SDS011;61493;51.008;14.088;2023-09-19T05:34:10;3.50;;;1.60;;
73264;SDS011;61493;51.008;14.088;2023-09-19T05:36:36;3.25;;;1.80;;
73264;SDS011;61493;51.008;14.088;2023-09-19T05:39:01;3.92;;;2.00;;
73264;SDS011;61493;51.008;14.088;2023-09-19T05:41:26;5.25;;;1.85;;
73264;SDS011;61493;51.008;14.088;2023-09-19T05:43:52;4.45;;;1.75;;
73264;SDS011;61493;51.008;14.088;2023-09-19T05:46:17;2.13;;;1.53;;
73264;SDS011;61493;51.008;14.088;2023-09-19T05:48:42;4.25;;;1.90;;
73264;SDS011;61493;51.008;14.088;2023-09-19T05:51:09;5.03;;;2.10;;
73264;SDS011;61493;51.008;14.088;2023-09-19T05:53:34;3.47;;;1.80;;
73264;SDS011;61493;51.008;14.088;2023-09-19T05:56:00;4.72;;;1.67;;
73264;SDS011;61493;51.008;14.088;2023-09-19T05:58:26;2.17;;;1.63;;
73264;SDS011;61493;51.008;14.088;2023-09-19T06:00:51;3.57;;;2.10;;
73264;SDS011;61493;51.008;14.088;2023-09-19T06:03:17;4.13;;;2.10;;
73264;SDS011;61493;51.008;14.088;2023-09-19T06:05:43;3.83;;;1.80;;
73264;SDS011;61493;51.008;14.088;2023-09-19T06:08:11;4.32;;;2.00;;
73264;SDS011;61493;51.008;14.088;2023-09-19T06:10:36;3.55;;;2.33;;
73264;SDS011;61493;51.008;14.088;2023-09-19T06:13:02;3.28;;;1.88;;
73264;SDS011;61493;51.008;14.088;2023-09-19T06:15:31;6.88;;;1.75;;
73264;SDS011;61493;51.008;14.088;2023-09-19T06:17:58;5.45;;;1.83;;
73264;SDS011;61493;51.008;14.088;2023-09-19T06:20:24;3.08;;;1.65;;
73264;SDS011;61493;51.008;14.088;2023-09-19T06:22:51;2.65;;;1.50;;
73264;SDS011;61493;51.008;14.088;2023-09-19T06:25:16;3.10;;;1.55;;
73264;SDS011;61493;51.008;14.088;2023-09-19T06:27:48;2.22;;;1.23;;
73264;SDS011;61493;51.008;14.088;2023-09-19T06:30:14;3.75;;;1.58;;
73264;SDS011;61493;51.008;14.088;2023-09-19T06:32:42;3.05;;;1.90;;
73264;SDS011;61493;51.008;14.088;2023-09-19T06:35:10;2.72;;;1.52;;
73264;SDS011;61493;51.008;14.088;2023-09-19T06:37:36;3.97;;;1.83;;
73264;SDS011;61493;51.008;14.088;2023-09-19T06:40:03;4.18;;;2.92;;
73264;SDS011;61493;51.008;14.088;2023-09-19T06:42:30;4.82;;;2.05;;
73264;SDS011;61493;51.008;14.088;2023-09-19T06:44:55;3.67;;;1.60;;
73264;SDS011;61493;51.008;14.088;2023-09-19T06:47:21;1.85;;;1.25;;
73264;SDS011;61493;51.008;14.088;2023-09-19T06:49:46;3.88;;;1.80;;
73264;SDS011;61493;51.008;14.088;2023-09-19T06:52:11;4.57;;;1.80;;
73264;SDS011;61493;51.008;14.088;2023-09-19T06:54:36;2.35;;;1.30;;
73264;SDS011;61493;51.008;14.088;2023-09-19T06:57:02;3.00;;;1.27;;
73264;SDS011;61493;51.008;14.088;2023-09-19T06:59:28;4.35;;;1.52;;
73264;SDS011;61493;51.008;14.088;2023-09-19T07:01:53;2.87;;;1.60;;
73264;SDS011;61493;51.008;14.088;2023-09-19T07:04:18;2.87;;;1.10;;
73264;SDS011;61493;51.008;14.088;2023-09-19T07:06:44;1.92;;;1.45;;
73264;SDS011;61493;51.008;14.088;2023-09-19T07:09:11;2.35;;;1.20;;
73264;SDS011;61493;51.008;14.088;2023-09-19T07:11:37;2.22;;;1.40;;
73264;SDS011;61493;51.008;14.088;2023-09-19T07:14:03;5.38;;;1.33;;
73264;SDS011;61493;51.008;14.088;2023-09-19T07:16:28;2.63;;;1.35;;
73264;SDS011;61493;51.008;14.088;2023-09-19T07:18:55;1.67;;;1.25;;
73264;SDS011;61493;51.008;14.088;2023-09-19T07:21:21;3.13;;;1.17;;
73264;SDS011;61493;51.008;14.088;2023-09-19T07:23:46;3.58;;;0.85;;
73264;SDS011;61493;51.008;14.088;2023-09-19T07:26:12;2.90;;;1.13;;
73264;SDS011;61493;51.008;14.088;2023-09-19T07:28:37;1.53;;;1.07;;
73264;SDS011;61493;51.008;14.088;2023-09-19T07:31:02;1.70;;;1.00;;
73264;SDS011;61493;51.008;14.088;2023-09-19T07:33:32;2.83;;;1.48;;
73264;SDS011;61493;51.008;14.088;2023-09-19T07:35:57;1.67;;;0.90;;
73264;SDS011;61493;51.008;14.088;2023-09-19T07:38:22;2.00;;;0.90;;
73264;SDS011;61493;51.008;14.088;2023-09-19T07:40:47;2.70;;;1.65;;
73264;SDS011;61493;51.008;14.088;2023-09-19T07:43:13;1.95;;;0.70;;
73264;SDS011;61493;51.008;14.088;2023-09-19T07:45:38;1.20;;;0.77;;
73264;SDS011;61493;51.008;14.088;2023-09-19T07:48:03;1.37;;;0.90;;
73264;SDS011;61493;51.008;14.088;2023-09-19T07:50:38;2.83;;;0.90;;
73264;SDS011;61493;51.008;14.088;2023-09-19T07:53:04;1.08;;;0.60;;
73264;SDS011;61493;51.008;14.088;2023-09-19T07:55:30;3.13;;;0.93;;
73264;SDS011;61493;51.008;14.088;2023-09-19T07:57:55;2.57;;;1.00;;
73264;SDS011;61493;51.008;14.088;2023-09-19T08:00:20;1.70;;;0.90;;
73264;SDS011;61493;51.008;14.088;2023-09-19T08:02:45;1.67;;;0.90;;
73264;SDS011;61493;51.008;14.088;2023-09-19T08:05:11;2.20;;;0.97;;
73264;SDS011;61493;51.008;14.088;2023-09-19T08:07:41;0.82;;;0.73;;
73264;SDS011;61493;51.008;14.088;2023-09-19T08:10:07;4.47;;;1.52;;
73264;SDS011;61493;51.008;14.088;2023-09-19T08:12:33;2.22;;;0.95;;
73264;SDS011;61493;51.008;14.088;2023-09-19T08:14:58;2.95;;;1.20;;
73264;SDS011;61493;51.008;14.088;2023-09-19T08:17:24;1.00;;;0.60;;
73264;SDS011;61493;51.008;14.088;2023-09-19T08:19:49;1.33;;;0.70;;
73264;SDS011;61493;51.008;14.088;2023-09-19T08:22:17;1.23;;;0.70;;
73264;SDS011;61493;51.008;14.088;2023-09-19T08:24:43;2.25;;;0.65;;
73264;SDS011;61493;51.008;14.088;2023-09-19T08:27:08;2.70;;;0.73;;
73264;SDS011;61493;51.008;14.088;2023-09-19T08:29:35;1.73;;;0.77;;
73264;SDS011;61493;51.008;14.088;2023-09-19T08:32:00;2.03;;;0.85;;
73264;SDS011;61493;51.008;14.088;2023-09-19T08:34:25;1.70;;;0.80;;
73264;SDS011;61493;51.008;14.088;2023-09-19T08:36:51;1.67;;;1.00;;
73264;SDS011;61493;51.008;14.088;2023-09-19T08:39:17;1.27;;;0.90;;
73264;SDS011;61493;51.008;14.088;2023-09-19T08:41:44;2.42;;;0.90;;
73264;SDS011;61493;51.008;14.088;2023-09-19T08:44:09;2.20;;;0.80;;
73264;SDS011;61493;51.008;14.088;2023-09-19T08:46:35;3.70;;;0.70;;
73264;SDS011;61493;51.008;14.088;2023-09-19T08:49:03;1.70;;;0.90;;
73264;SDS011;61493;51.008;14.088;2023-09-19T08:51:42;1.55;;;0.90;;
73264;SDS011;61493;51.008;14.088;2023-09-19T08:54:19;3.60;;;0.70;;
73264;SDS011;61493;51.008;14.088;2023-09-19T08:56:47;2.08;;;0.63;;
73264;SDS011;61493;51.008;14.088;2023-09-19T08:59:13;1.00;;;0.50;;
73264;SDS011;61493;51.008;14.088;2023-09-19T09:01:38;1.23;;;0.80;;
73264;SDS011;61493;51.008;14.088;2023-09-19T09:04:08;2.25;;;0.70;;
73264;SDS011;61493;51.008;14.088;2023-09-19T09:06:34;2.47;;;0.70;;
73264;SDS011;61493;51.008;14.088;2023-09-19T09:09:04;2.05;;;1.15;;
73264;SDS011;61493;51.008;14.088;2023-09-19T09:11:29;1.25;;;0.82;;
73264;SDS011;61493;51.008;14.088;2023-09-19T09:13:57;1.65;;;0.77;;
73264;SDS011;61493;51.008;14.088;2023-09-19T09:16:23;2.77;;;0.90;;
73264;SDS011;61493;51.008;14.088;2023-09-19T09:18:51;2.05;;;0.80;;
73264;SDS011;61493;51.008;14.088;2023-09-19T09:21:17;1.15;;;0.75;;
73264;SDS011;61493;51.008;14.088;2023-09-19T09:23:42;1.77;;;0.75;;
73264;SDS011;61493;51.008;14.088;2023-09-19T09:26:08;2.83;;;0.90;;
73264;SDS011;61493;51.008;14.088;2023-09-19T09:28:34;2.25;;;0.90;;
73264;SDS011;61493;51.008;14.088;2023-09-19T09:31:04;2.08;;;0.80;;
73264;SDS011;61493;51.008;14.088;2023-09-19T09:33:33;1.60;;;0.70;;
73264;SDS011;61493;51.008;14.088;2023-09-19T09:35:59;2.22;;;0.90;;
73264;SDS011;61493;51.008;14.088;2023-09-19T09:38:28;1.33;;;0.80;;
73264;SDS011;61493;51.008;14.088;2023-09-19T09:40:56;2.13;;;0.70;;
73264;SDS011;61493;51.008;14.088;2023-09-19T09:43:38;1.25;;;0.65;;
73264;SDS011;61493;51.008;14.088;2023-09-19T09:46:23;1.67;;;0.85;;
73264;SDS011;61493;51.008;14.088;2023-09-19T09:51:38;2.33;;;0.95;;
73264;SDS011;61493;51.008;14.088;2023-09-19T09:54:10;1.63;;;0.70;;
73264;SDS011;61493;51.008;14.088;2023-09-19T09:59:03;1.80;;;0.93;;
73264;SDS011;61493;51.008;14.088;2023-09-19T10:01:45;2.20;;;0.80;;
73264;SDS011;61493;51.008;14.088;2023-09-19T10:04:11;4.32;;;1.00;;
73264;SDS011;61493;51.008;14.088;2023-09-19T10:06:53;0.70;;;0.50;;
73264;SDS011;61493;51.008;14.088;2023-09-19T10:09:19;2.40;;;0.85;;
73264;SDS011;61493;51.008;14.088;2023-09-19T10:12:05;1.38;;;0.70;;
73264;SDS011;61493;51.008;14.088;2023-09-19T10:14:31;1.77;;;0.77;;
73264;SDS011;61493;51.008;14.088;2023-09-19T10:16:59;2.60;;;0.88;;
73264;SDS011;61493;51.008;14.088;2023-09-19T10:19:36;2.75;;;0.90;;
73264;SDS011;61493;51.008;14.088;2023-09-19T10:22:02;1.70;;;0.80;;
73264;SDS011;61493;51.008;14.088;2023-09-19T10:24:28;1.60;;;0.75;;
73264;SDS011;61493;51.008;14.088;2023-09-19T10:26:53;2.08;;;0.95;;
73264;SDS011;61493;51.008;14.088;2023-09-19T10:29:19;1.30;;;0.68;;
73264;SDS011;61493;51.008;14.088;2023-09-19T10:31:47;2.10;;;0.77;;
73264;SDS011;61493;51.008;14.088;2023-09-19T10:34:14;2.25;;;0.98;;
73264;SDS011;61493;51.008;14.088;2023-09-19T10:36:39;1.63;;;0.68;;
73264;SDS011;61493;51.008;14.088;2023-09-19T10:39:07;1.45;;;0.73;;
73264;SDS011;61493;51.008;14.088;2023-09-19T10:41:34;3.42;;;1.15;;
73264;SDS011;61493;51.008;14.088;2023-09-19T10:44:02;3.75;;;0.70;;
73264;SDS011;61493;51.008;14.088;2023-09-19T10:46:28;1.02;;;0.57;;
73264;SDS011;61493;51.008;14.088;2023-09-19T10:48:53;2.38;;;0.63;;
73264;SDS011;61493;51.008;14.088;2023-09-19T10:51:24;2.53;;;0.70;;
73264;SDS011;61493;51.008;14.088;2023-09-19T10:54:05;2.35;;;0.68;;
73264;SDS011;61493;51.008;14.088;2023-09-19T10:56:33;1.20;;;0.75;;
73264;SDS011;61493;51.008;14.088;2023-09-19T10:59:09;0.68;;;0.65;;
73264;SDS011;61493;51.008;14.088;2023-09-19T11:04:22;0.80;;;0.60;;
73264;SDS011;61493;51.008;14.088;2023-09-19T11:09:44;1.58;;;1.05;;
73264;SDS011;61493;51.008;14.088;2023-09-19T11:12:47;1.30;;;0.70;;
73264;SDS011;61493;51.008;14.088;2023-09-19T11:15:01;1.85;;;0.85;;
73264;SDS011;61493;51.008;14.088;2023-09-19T11:17:36;1.83;;;0.80;;
73264;SDS011;61493;51.008;14.088;2023-09-19T11:30:59;1.25;;;0.38;;
73264;SDS011;61493;51.008;14.088;2023-09-19T11:33:44;0.80;;;0.57;;
73264;SDS011;61493;51.008;14.088;2023-09-19T11:36:12;1.13;;;0.70;;
73264;SDS011;61493;51.008;14.088;2023-09-19T11:43:49;2.22;;;1.08;;
73264;SDS011;61493;51.008;14.088;2023-09-19T11:46:15;2.58;;;0.80;;
73264;SDS011;61493;51.008;14.088;2023-09-19T11:48:42;1.55;;;0.88;;
73264;SDS011;61493;51.008;14.088;2023-09-19T11:51:10;1.70;;;0.82;;
73264;SDS011;61493;51.008;14.088;2023-09-19T11:53:40;2.47;;;0.75;;
73264;SDS011;61493;51.008;14.088;2023-09-19T11:56:08;3.10;;;1.00;;
73264;SDS011;61493;51.008;14.088;2023-09-19T11:58:35;2.25;;;0.82;;
73264;SDS011;61493;51.008;14.088;2023-09-19T12:01:00;0.90;;;0.60;;
73264;SDS011;61493;51.008;14.088;2023-09-19T12:03:32;1.55;;;0.80;;
73264;SDS011;61493;51.008;14.088;2023-09-19T12:05:58;3.58;;;0.88;;
73264;SDS011;61493;51.008;14.088;2023-09-19T12:08:24;0.73;;;0.60;;
73264;SDS011;61493;51.008;14.088;2023-09-19T12:10:49;2.00;;;1.10;;
73264;SDS011;61493;51.008;14.088;2023-09-19T12:13:19;2.30;;;0.90;;
73264;SDS011;61493;51.008;14.088;2023-09-19T12:15:44;1.50;;;0.82;;
73264;SDS011;61493;51.008;14.088;2023-09-19T12:18:28;2.38;;;0.70;;
73264;SDS011;61493;51.008;14.088;2023-09-19T12:20:53;2.05;;;0.80;;
73264;SDS011;61493;51.008;14.088;2023-09-19T12:23:20;2.13;;;1.00;;
73264;SDS011;61493;51.008;14.088;2023-09-19T12:25:46;2.30;;;1.15;;
73264;SDS011;61493;51.008;14.088;2023-09-19T12:28:18;2.10;;;0.93;;
73264;SDS011;61493;51.008;14.088;2023-09-19T12:30:43;1.67;;;0.90;;
73264;SDS011;61493;51.008;14.088;2023-09-19T12:33:16;1.38;;;1.00;;
73264;SDS011;61493;51.008;14.088;2023-09-19T12:35:41;4.13;;;0.93;;
73264;SDS011;61493;51.008;14.088;2023-09-19T12:38:10;3.78;;;1.17;;
73264;SDS011;61493;51.008;14.088;2023-09-19T12:40:35;1.65;;;0.85;;
73264;SDS011;61493;51.008;14.088;2023-09-19T12:43:02;2.35;;;0.93;;
73264;SDS011;61493;51.008;14.088;2023-09-19T12:45:28;2.13;;;1.08;;
73264;SDS011;61493;51.008;14.088;2023-09-19T12:50:58;3.17;;;1.05;;
73264;SDS011;61493;51.008;14.088;2023-09-19T12:53:25;3.17;;;0.85;;
73264;SDS011;61493;51.008;14.088;2023-09-19T12:55:57;2.58;;;1.00;;
73264;SDS011;61493;51.008;14.088;2023-09-19T12:58:23;2.97;;;1.17;;
73264;SDS011;61493;51.008;14.088;2023-09-19T13:00:48;5.45;;;1.33;;
73264;SDS011;61493;51.008;14.088;2023-09-19T13:05:51;1.73;;;0.73;;
73264;SDS011;61493;51.008;14.088;2023-09-19T13:08:20;2.38;;;1.35;;
73264;SDS011;61493;51.008;14.088;2023-09-19T13:13:26;1.63;;;1.08;;
73264;SDS011;61493;51.008;14.088;2023-09-19T13:15:53;2.85;;;0.90;;
73264;SDS011;61493;51.008;14.088;2023-09-19T13:18:18;1.90;;;1.02;;
73264;SDS011;61493;51.008;14.088;2023-09-19T13:21:04;2.60;;;0.90;;
73264;SDS011;61493;51.008;14.088;2023-09-19T13:23:30;3.58;;;1.15;;
73264;SDS011;61493;51.008;14.088;2023-09-19T13:25:56;2.58;;;1.17;;
73264;SDS011;61493;51.008;14.088;2023-09-19T13:28:21;2.65;;;1.25;;
73264;SDS011;61493;51.008;14.088;2023-09-19T13:30:46;1.67;;;0.90;;
73264;SDS011;61493;51.008;14.088;2023-09-19T13:33:13;3.15;;;1.77;;
73264;SDS011;61493;51.008;14.088;2023-09-19T13:35:45;3.35;;;1.08;;
73264;SDS011;61493;51.008;14.088;2023-09-19T13:38:13;1.88;;;0.90;;
73264;SDS011;61493;51.008;14.088;2023-09-19T13:40:39;3.40;;;1.20;;
73264;SDS011;61493;51.008;14.088;2023-09-19T13:43:07;3.67;;;1.02;;
73264;SDS011;61493;51.008;14.088;2023-09-19T13:45:36;2.35;;;1.05;;
73264;SDS011;61493;51.008;14.088;2023-09-19T13:48:07;2.50;;;1.25;;
73264;SDS011;61493;51.008;14.088;2023-09-19T13:50:44;1.75;;;1.02;;
73264;SDS011;61493;51.008;14.088;2023-09-19T13:53:16;1.48;;;0.90;;
73264;SDS011;61493;51.008;14.088;2023-09-19T13:55:42;1.88;;;1.17;;
73264;SDS011;61493;51.008;14.088;2023-09-19T13:58:07;2.00;;;1.00;;
73264;SDS011;61493;51.008;14.088;2023-09-19T14:00:36;1.95;;;1.00;;
73264;SDS011;61493;51.008;14.088;2023-09-19T14:03:03;2.28;;;0.80;;
73264;SDS011;61493;51.008;14.088;2023-09-19T14:05:32;2.08;;;1.20;;
73264;SDS011;61493;51.008;14.088;2023-09-19T14:07:58;2.65;;;1.30;;
73264;SDS011;61493;51.008;14.088;2023-09-19T14:10:25;1.60;;;0.93;;
73264;SDS011;61493;51.008;14.088;2023-09-19T14:12:55;2.30;;;0.90;;
73264;SDS011;61493;51.008;14.088;2023-09-19T14:15:23;1.60;;;0.90;;
73264;SDS011;61493;51.008;14.088;2023-09-19T14:17:54;3.25;;;0.93;;
73264;SDS011;61493;51.008;14.088;2023-09-19T14:20:20;1.42;;;0.68;;
73264;SDS011;61493;51.008;14.088;2023-09-19T14:22:47;4.22;;;1.10;;
73264;SDS011;61493;51.008;14.088;2023-09-19T14:25:15;5.95;;;1.20;;
73264;SDS011;61493;51.008;14.088;2023-09-19T14:27:40;2.83;;;1.15;;
73264;SDS011;61493;51.008;14.088;2023-09-19T14:30:09;2.63;;;1.00;;
73264;SDS011;61493;51.008;14.088;2023-09-19T14:32:34;3.08;;;1.20;;
73264;SDS011;61493;51.008;14.088;2023-09-19T14:35:01;1.90;;;1.20;;
73264;SDS011;61493;51.008;14.088;2023-09-19T14:37:26;3.63;;;1.35;;
73264;SDS011;61493;51.008;14.088;2023-09-19T14:39:53;4.63;;;1.60;;
73264;SDS011;61493;51.008;14.088;2023-09-19T14:42:18;2.37;;;0.97;;
73264;SDS011;61493;51.008;14.088;2023-09-19T14:44:46;2.28;;;1.08;;
73264;SDS011;61493;51.008;14.088;2023-09-19T14:47:13;2.22;;;1.08;;
73264;SDS011;61493;51.008;14.088;2023-09-19T14:49:42;2.58;;;1.30;;
73264;SDS011;61493;51.008;14.088;2023-09-19T14:52:07;2.53;;;1.30;;
73264;SDS011;61493;51.008;14.088;2023-09-19T14:54:33;2.78;;;1.20;;
73264;SDS011;61493;51.008;14.088;2023-09-19T14:56:58;2.95;;;1.50;;
73264;SDS011;61493;51.008;14.088;2023-09-19T14:59:32;3.65;;;1.65;;
73264;SDS011;61493;51.008;14.088;2023-09-19T15:01:57;2.78;;;1.30;;
73264;SDS011;61493;51.008;14.088;2023-09-19T15:04:23;5.57;;;1.65;;
73264;SDS011;61493;51.008;14.088;2023-09-19T15:06:49;3.17;;;1.45;;
73264;SDS011;61493;51.008;14.088;2023-09-19T15:09:14;2.15;;;1.15;;
73264;SDS011;61493;51.008;14.088;2023-09-19T15:11:40;2.17;;;1.00;;
73264;SDS011;61493;51.008;14.088;2023-09-19T15:14:05;5.50;;;1.20;;
73264;SDS011;61493;51.008;14.088;2023-09-19T15:16:30;4.33;;;1.57;;